Telogia, Florida
Current Conditions -  °F | °C
As of 8:55 PM on Sunday 21 Dec 2014 (Local Time) from K2J9 Reporting Station
Overcast Overcast  
Wind Chill: 55°   Ceiling: 300
Heat Index: 55°   Visibility: 2mi
Dew Point: 55°   Wind: 7mph
Humidity: 100%   Direction: 80°E
Pressure: 30.06"   Gusts: NA
Location:  30.35°N, 84.82°W
Report Text: K2J9 220155Z AUTO 08006KT 2SM OVC003 13/13 A3006 RMK AO1
Loading
Personal Weather Stations






























Interactive Weather Map New forecast layout! Learn more

10-Day Weather Forecast

Advertisements
Track Severe Weather on mobile